• Join FlightAware (Why Join?)
  • Login
  • US Flag 
02:33PM EDT


 

Airport Tracker/Info


-or-


 

Live Flight TrackerFlight Track Log ✈ N9004F ✈ 04-Nov-2013 ✈ KDFW - KCLT

Flight Track Log - Related Links

Times and Time Zones

All times are in EST time to prevent confusion due to time zone crossing. See the N9004F flight status page for this flight to view local times or setup timezone preferences in your user account.

Time Position Orientation Groundspeed Altitude Reporting Facility
EST Latitude Longitude Course Direction KTS MPH feet Rate Location/Type
08:37AM 32.8860 -97.0260 182° South 1,200  Level FlightAware
08:37AM 32.8717 -97.0259 180° South 140 161 2,200 1,800 Climbing FlightAware ADS-B (KAFW)
08:38AM 32.8557 -97.0244 175° South 154 177 2,700 1,560 Climbing FlightAware ADS-B (KAFW)
08:38AM 32.8419 -97.0193 163° South 173 199 3,200 1,860 Climbing FlightAware ADS-B (KAFW)
08:39AM 32.7908 -96.9962 159° South 247 284 5,000 2,160 Climbing FlightAware ADS-B (KAFW)
08:39AM 32.7842 -96.9894 139° Southeast 258 297 5,400 3,120 Climbing FlightAware ADS-B (KAFW)
08:39AM 32.7746 -96.9704 121° Southeast 271 312 6,100 3,420 Climbing FlightAware ADS-B (KAFW)
08:39AM 32.7668 -96.9439 109° East 272 313 7,300 3,180 Climbing FlightAware ADS-B (KAFW)
08:40AM 32.7655 -96.9311 97° East 281 323 7,600 2,460 Climbing FlightAware ADS-B (KAFW)
08:40AM 32.7664 -96.9030 88° East 289 333 8,500 2,820 Climbing FlightAware ADS-B (KAFW)
08:40AM 32.7677 -96.8666 88° East 302 348 9,500 3,000 Climbing FlightAware ADS-B (KAFW)
08:41AM 32.7745 -96.8186 80° East 317 365 10,800 2,280 Climbing FlightAware ADS-B (KAFW)
08:41AM 32.7955 -96.7668 64° Northeast 336 387 11,800 -4,200 Climbing FlightAware ADS-B (KAFW)
08:42AM 32.8056 -96.7412 65° Northeast 362 417 7,100 1,680 Descending FlightAware ADS-B (KAFW)
08:42AM 32.8370 -96.6636 64° Northeast 387 445 13,400 6,600 Climbing FlightAware ADS-B (KAFW)
08:43AM 32.8639 -96.5972 64° Northeast 394 453 14,800 2,460 Climbing FlightAware ADS-B (KAFW)
08:43AM 32.8948 -96.5207 64° Northeast 400 460 16,500 2,520 Climbing FlightAware ADS-B (KAFW)
08:44AM 32.9327 -96.4415 60° Northeast 403 464 18,300 2,040 Climbing FlightAware ADS-B (KAFW)
08:45AM 32.9896 -96.3288 59° Northeast 420 483 19,900 1,740 Climbing FlightAware ADS-B (KAFW)
08:46AM 33.0170 -96.2372 70° East 428 493 21,200 1,560 Climbing FlightAware ADS-B (KAFW)
08:46AM 33.0407 -96.1406 74° East 440 506 22,100 1,380 Climbing FlightAware ADS-B (KAFW)
08:47AM 33.0780 -95.9860 74° East 458 527 23,600 1,320 Climbing FlightAware
08:48AM 33.0960 -95.9080 75° East 467 537 24,200 1,320 Climbing FlightAware
08:49AM 33.1147 -95.8294 74° East 469 540 25,100 1,320 Climbing FlightAware ADS-B (KAFW)
08:49AM 33.1376 -95.7320 74° East 477 549 25,900 1,380 Climbing FlightAware ADS-B (KAFW)
08:50AM 33.1586 -95.6426 74° East 483 556 26,900 1,620 Climbing FlightAware ADS-B (KAFW)
08:51AM 33.1990 -95.4710 74° East 499 574 28,500 1,620 Climbing FlightAware
08:51AM 33.2210 -95.3720 75° East 504 580 29,500 1,560 Climbing FlightAware
08:52AM 33.2439 -95.2751 74° East 512 589 30,400 1,320 Climbing FlightAware ADS-B
08:53AM 33.2634 -95.1896 75° East 521 600 31,000 960 Climbing FlightAware ADS-B
08:53AM 33.2830 -95.1044 75° East 533 613 31,400 900 Climbing FlightAware ADS-B
08:54AM 33.3038 -95.0132 75° East 540 621 32,000 1,200 Climbing FlightAware ADS-B
08:54AM 33.3242 -94.9238 75° East 545 627 32,700 1,560 Climbing FlightAware ADS-B
08:55AM 33.3443 -94.8352 75° East 544 626 33,600 1,440 Climbing FlightAware ADS-B
08:55AM 33.3649 -94.7439 75° East 548 631 34,200 1,320 Climbing FlightAware ADS-B
08:56AM 33.3849 -94.6552 75° East 548 631 35,000 1,440 Climbing FlightAware ADS-B
08:56AM 33.4053 -94.5638 75° East 551 634 35,700 1,440 Climbing FlightAware ADS-B
08:57AM 33.4310 -94.4480 75° East 550 633 36,700 1,320 Climbing FlightAware
08:57AM 33.4570 -94.3340 75° East 548 631 37,500 1,260 Climbing FlightAware
08:58AM 33.4810 -94.2250 75° East 545 627 38,300 1,200 Climbing FlightAware
08:59AM 33.5040 -94.1200 75° East 543 625 39,000 540 Climbing FlightAware
08:59AM 33.5400 -94.0080 69° East 536 617 39,000  Level FlightAware
09:00AM 33.5720 -93.9250 65° Northeast 536 617 39,000  Level FlightAware
09:01AM 33.6190 -93.8050 65° Northeast 537 618 39,000  Level FlightAware
09:01AM 33.5950 -93.8640 244° Southwest 537 618 39,000  Level FlightAware
09:02AM 33.6410 -93.7470 65° Northeast 537 618 39,000  Level FlightAware
09:04AM 33.8190 -93.2830 65° Northeast 536 617 39,000  Level FlightAware
09:04AM 33.8570 -93.1840 65° Northeast 536 617 39,000  Level FlightAware
09:06AM 33.9150 -93.0340 65° Northeast 536 617 39,000  Level FlightAware
09:06AM 33.9570 -92.9180 66° East 535 616 39,000  Level FlightAware
09:07AM 34.0280 -92.7300 65° Northeast 533 613 39,000  Level FlightAware
09:09AM 34.1020 -92.5330 66° East 535 616 39,000  Level FlightAware
09:09AM 34.1430 -92.4220 66° East 535 616 39,000  Level FlightAware
09:10AM 34.1820 -92.3160 66° East 534 615 39,000  Level FlightAware
09:10AM 34.2150 -92.2280 66° East 532 612 39,000  Level FlightAware
09:11AM 34.2560 -92.1150 66° East 531 611 39,000  Level FlightAware
09:12AM 34.3080 -91.9730 66° East 531 611 39,000  Level FlightAware
09:13AM 34.3490 -91.8630 66° East 529 609 39,000  Level FlightAware
09:13AM 34.3840 -91.7670 66° East 527 606 39,000  Level FlightAware
09:14AM 34.4290 -91.6420 66° East 526 605 39,000  Level FlightAware
09:15AM 34.4770 -91.5090 66° East 524 603 39,000  Level FlightAware
09:15AM 34.5100 -91.4190 66° East 523 602 39,000  Level FlightAware
09:16AM 34.5440 -91.3240 66° East 524 603 39,000  Level FlightAware
09:17AM 34.5890 -91.1980 67° East 524 603 39,000  Level FlightAware
09:17AM 34.6300 -91.0840 66° East 524 603 39,000  Level FlightAware
09:19AM 34.6980 -90.8910 67° East 524 603 39,000  Level FlightAware
09:19AM 34.7310 -90.7980 67° East 523 602 39,000  Level FlightAware
09:20AM 34.7740 -90.6760 67° East 521 600 39,000  Level FlightAware
09:20AM 34.8040 -90.5910 67° East 520 598 39,000  Level FlightAware
09:21AM 34.8440 -90.4780 67° East 520 598 39,000  Level FlightAware
09:22AM 34.8700 -90.4020 67° East 518 596 39,000  Level FlightAware
09:22AM 34.9090 -90.2900 67° East 518 596 39,000  Level FlightAware
09:23AM 34.9420 -90.1940 67° East 518 596 39,000  Level FlightAware
09:24AM 34.9800 -90.0870 67° East 520 598 39,000  Level FlightAware
09:24AM 35.0200 -89.9620 69° East 520 598 39,000  Level FlightAware
09:25AM 35.0460 -89.8780 69° East 520 598 39,000  Level FlightAware
09:26AM 35.0730 -89.7940 69° East 520 598 39,000  Level FlightAware
09:26AM 35.1080 -89.6820 69° East 520 598 39,000  Level FlightAware
09:27AM 35.1340 -89.5980 69° East 520 598 39,000  Level FlightAware
09:28AM 35.1690 -89.4860 69° East 520 598 39,000  Level FlightAware
09:28AM 35.1960 -89.4020 69° East 520 598 39,000  Level FlightAware
09:29AM 35.2220 -89.3180 69° East 520 598 39,000  Level FlightAware
09:30AM 35.2490 -89.2310 69° East 520 598 39,000  Level FlightAware
09:31AM 35.2240 -88.7390 93° East 525 604 39,000  Level FlightAware
09:32AM 35.2420 -88.6230 79° East 525 604 39,000  Level FlightAware
09:33AM 35.2590 -88.5220 78° East 524 603 39,000  Level FlightAware
09:33AM 35.2730 -88.4340 79° East 522 601 39,000  Level FlightAware
09:34AM 35.2880 -88.3430 79° East 522 601 39,000  Level FlightAware
09:35AM 35.3090 -88.2250 78° East 522 601 39,000  Level FlightAware
09:35AM 35.3290 -88.1070 78° East 522 601 39,000  Level FlightAware
09:36AM 35.3450 -88.0180 78° East 522 601 39,000  Level FlightAware
09:36AM 35.3630 -87.8570 82° East 518 596 39,000  Level FlightAware
09:37AM 35.3800 -87.7460 79° East 517 595 39,000  Level FlightAware
09:38AM 35.4020 -87.6010 79° East 518 596 39,000  Level FlightAware
09:39AM 35.4210 -87.4770 79° East 519 597 39,000  Level FlightAware
09:40AM 35.4567 -87.2374 80° East 521 600 39,000  Level FlightAware ADS-B
09:41AM 35.4751 -87.1131 80° East 522 601 39,000  Level FlightAware ADS-B
09:42AM 35.5030 -86.9250 80° East 522 601 39,000  Level FlightAware
09:42AM 35.5180 -86.8220 80° East 520 598 39,000  Level FlightAware
09:43AM 35.5310 -86.7290 80° East 518 596 39,000  Level FlightAware
09:44AM 35.5490 -86.6080 80° East 515 593 39,000  Level FlightAware
09:44AM 35.5660 -86.4840 80° East 513 590 39,000  Level FlightAware
09:45AM 35.5790 -86.3920 80° East 513 590 39,000  Level FlightAware
09:46AM 35.6055 -86.2056 80° East 512 589 39,000  Level FlightAware ADS-B
09:47AM 35.6312 -86.0195 80° East 512 589 39,000  Level FlightAware ADS-B
09:48AM 35.6435 -85.9311 80° East 511 588 39,000  Level FlightAware ADS-B
09:49AM 35.6669 -85.7595 80° East 511 588 39,000  Level FlightAware ADS-B
09:49AM 35.6801 -85.6620 81° East 511 588 39,000  Level FlightAware ADS-B
09:50AM 35.6933 -85.5639 81° East 511 588 39,000  Level FlightAware ADS-B
09:50AM 35.7052 -85.4752 81° East 512 589 39,000 -120 Level FlightAware ADS-B
09:51AM 35.7167 -85.3877 81° East 513 590 38,900 -720 Descending FlightAware ADS-B
09:52AM 35.7385 -85.2218 81° East 512 589 38,000 -1,080 Descending FlightAware ADS-B
09:52AM 35.7507 -85.1305 81° East 512 589 37,300 -1,500 Descending FlightAware ADS-B
09:53AM 35.7618 -85.0436 81° East 513 590 36,500 -1,680 Descending FlightAware ADS-B
09:53AM 35.7731 -84.9562 81° East 519 597 35,600 -1,680 Descending FlightAware ADS-B
09:54AM 35.7843 -84.8683 81° East 521 600 34,800 -1,620 Descending FlightAware ADS-B
09:54AM 35.7957 -84.7792 81° East 520 598 34,000 -1,500 Descending FlightAware ADS-B
09:55AM 35.8102 -84.6649 81° East 518 596 33,100 -900 Descending FlightAware ADS-B
09:55AM 35.8215 -84.5766 81° East 509 586 33,000 -120 Descending FlightAware ADS-B
09:56AM 35.8324 -84.4891 81° East 507 583 33,000  Level FlightAware ADS-B
09:56AM 35.8437 -84.3984 81° East 508 585 33,000  Level FlightAware ADS-B
09:57AM 35.8546 -84.3108 81° East 509 586 33,000  Level FlightAware ADS-B
09:58AM 35.8658 -84.2185 81° East 507 583 33,000  Level FlightAware ADS-B
09:58AM 35.8763 -84.1314 82° East 507 583 33,000  Level FlightAware ADS-B
09:59AM 35.8875 -84.0393 81° East 506 582 33,000  Level FlightAware ADS-B
09:59AM 35.8982 -83.9498 82° East 507 583 33,000  Level FlightAware ADS-B
10:00AM 35.9032 -83.8720 85° East 508 585 33,000  Level FlightAware ADS-B
10:00AM 35.9035 -83.8267 90° East 510 587 33,000 -420 Level FlightAware ADS-B
10:00AM 35.9020 -83.7336 91° East 509 586 32,700 -780 Descending FlightAware ADS-B
10:01AM 35.9006 -83.6487 91° East 508 585 32,200 -1,020 Descending FlightAware ADS-B
10:01AM 35.8987 -83.5554 91° East 506 582 31,700 -960 Descending FlightAware ADS-B
10:02AM 35.8970 -83.4669 91° East 500 575 31,200 -1,020 Descending FlightAware ADS-B
10:02AM 35.8954 -83.3813 91° East 496 571 30,700 -1,080 Descending FlightAware ADS-B
10:03AM 35.8927 -83.2516 91° East 492 566 29,900 -960 Descending FlightAware ADS-B
10:04AM 35.8889 -83.0720 91° East 486 559 29,000 -540 Descending FlightAware ADS-B
10:05AM 35.8866 -82.9727 92° East 482 555 29,000  Level FlightAware ADS-B
10:05AM 35.8840 -82.8687 92° East 483 556 29,000 -120 Level FlightAware ADS-B
10:06AM 35.8817 -82.7785 92° East 484 557 28,900 -2,220 Descending FlightAware ADS-B
10:07AM 35.8793 -82.6889 92° East 502 578 26,600 -4,020 Descending FlightAware ADS-B
10:07AM 35.8770 -82.6001 92° East 511 588 24,800 -2,760 Descending FlightAware ADS-B
10:08AM 35.8746 -82.5129 92° East 477 549 23,800 -3,000 Descending FlightAware ADS-B
10:08AM 35.8721 -82.4327 92° East 476 548 21,800 -2,880 Descending FlightAware ADS-B
10:09AM 35.8699 -82.3506 92° East 458 527 20,900 -1,680 Descending FlightAware ADS-B
10:09AM 35.8677 -82.2715 92° East 441 507 20,100 -1,380 Descending FlightAware ADS-B
10:10AM 35.8656 -82.1990 92° East 415 478 19,500 -1,800 Descending FlightAware ADS-B
10:10AM 35.8635 -82.1296 92° East 386 444 18,300 -2,880 Descending FlightAware ADS-B
10:11AM 35.8613 -82.0620 92° East 380 437 16,600 -2,280 Descending FlightAware ADS-B
10:11AM 35.8496 -81.9618 98° East 376 433 15,400 -1,200 Descending FlightAware ADS-B
10:12AM 35.8230 -81.9180 127° Southeast 365 420 15,000 -960 Descending FlightAware
10:13AM 35.7800 -81.8500 128° Southeast 357 411 14,300 -1,080 Descending FlightAware
10:13AM 35.7410 -81.7900 129° Southeast 348 400 13,700 -1,020 Descending FlightAware
10:14AM 35.7070 -81.7370 128° Southeast 348 400 13,100 -1,380 Descending FlightAware
10:14AM 35.6690 -81.6790 129° Southeast 345 397 12,100 -1,200 Descending FlightAware
10:15AM 35.6450 -81.6420 129° Southeast 343 395 11,900 -660 Descending FlightAware
10:15AM 35.6050 -81.5810 129° Southeast 331 381 11,400 -420 Descending FlightAware
10:16AM 35.5690 -81.5250 128° Southeast 305 351 11,400  Level FlightAware
10:17AM 35.5380 -81.4780 129° Southeast 305 351 11,400  Level FlightAware
10:17AM 35.5130 -81.4400 129° Southeast 304 350 11,400 -480 Level FlightAware
10:18AM 35.4800 -81.3910 130° Southeast 302 348 10,900 -1,140 Descending FlightAware
10:18AM 35.4490 -81.3430 128° Southeast 298 343 10,000 -1,140 Descending FlightAware
10:19AM 35.4150 -81.2920 129° Southeast 298 343 9,500 -780 Descending FlightAware
10:20AM 35.3780 -81.2380 130° Southeast 296 341 9,000 -720 Descending FlightAware
10:20AM 35.3470 -81.1930 130° Southeast 291 335 8,600 -540 Descending FlightAware
10:21AM 35.3140 -81.1450 130° Southeast 292 336 8,400 -180 Descending FlightAware
10:22AM 35.2790 -81.0930 129° Southeast 250 288 8,400  Level FlightAware
10:22AM 35.2450 -81.0710 152° Southeast 248 285 8,400 -600 Level FlightAware
10:23AM 35.1980 -81.0670 176° South 240 276 7,700 -1,320 Descending FlightAware
10:24AM 35.1490 -81.0620 175° South 232 267 6,500 -1,620 Descending FlightAware
10:24AM 35.1100 -81.0590 176° South 233 268 5,600 -840 Descending FlightAware
10:25AM 35.0630 -81.0550 176° South 235 270 5,400 -180 Descending FlightAware
10:26AM 35.0250 -81.0510 175° South 230 265 5,400  Level FlightAware
10:26AM 34.9840 -81.0480 177° South 209 241 5,400 -600 Level FlightAware
10:27AM 34.9530 -81.0450 175° South 215 247 4,700 -900 Descending FlightAware
10:28AM 34.9290 -81.0170 136° Southeast 192 221 4,400 -240 Descending FlightAware
10:28AM 34.9430 -80.9720 69° East 178 205 4,400  Level FlightAware
10:29AM 34.9640 -80.9620 21° North 160 184 4,400 -600 Level FlightAware
10:30AM 34.9960 -80.9500 17° North 161 185 3,700 -780 Descending FlightAware
10:30AM 35.0220 -80.9500 360° North 166 191 3,400 -420 Descending FlightAware
10:31AM 35.0520 -80.9530 355° North 166 191 3,200 -660 Descending FlightAware
10:31AM 35.0770 -80.9550 356° North 166 191 2,700 -960 Descending FlightAware
10:32AM 35.1040 -80.9570 357° North 146 168 2,100 -840 Descending FlightAware
10:33AM 35.1360 -80.9600 356° North 136 157 1,500 -720 Descending FlightAware
10:33AM 35.1580 -80.9620 356° North 134 154 1,100 -780 Descending FlightAware
10:34AM 35.1800 -80.9630 358° North 138 159 600 -840 Descending FlightAware
10:35AM 35.2000 -80.9650 355° North 132 152 200 -780 Descending FlightAware